createdAt,value
2023-09-12T00:00:37.022Z,6.97
2023-09-12T00:03:04.979Z,6.47
2023-09-12T00:05:32.629Z,7.03
2023-09-12T00:08:00.270Z,6.95
2023-09-12T00:10:27.869Z,7.38
2023-09-12T00:12:55.516Z,6.47
2023-09-12T00:15:23.465Z,7.07
2023-09-12T00:17:51.156Z,7.32
2023-09-12T00:20:18.722Z,6.40
2023-09-12T00:22:47.313Z,6.78
2023-09-12T00:25:15.170Z,7.07
2023-09-12T00:27:42.874Z,6.00
2023-09-12T00:30:11.319Z,7.07
2023-09-12T00:32:38.978Z,6.47
2023-09-12T00:35:07.228Z,7.22
2023-09-12T00:37:34.843Z,8.85
2023-09-12T00:40:02.386Z,6.90
2023-09-12T00:42:30.989Z,6.35
2023-09-12T00:44:58.642Z,6.82
2023-09-12T00:47:28.291Z,7.15
2023-09-12T00:49:57.610Z,7.07
2023-09-12T00:52:28.902Z,6.97
2023-09-12T00:54:56.771Z,6.82
2023-09-12T00:57:25.871Z,6.10
2023-09-12T00:59:55.042Z,6.75
2023-09-12T01:02:23.514Z,6.97
2023-09-12T01:04:52.117Z,7.35
2023-09-12T01:07:20.020Z,7.63
2023-09-12T01:09:47.621Z,7.68
2023-09-12T01:12:15.790Z,7.93
2023-09-12T01:14:43.615Z,8.30
2023-09-12T01:17:11.625Z,9.40
2023-09-12T01:19:39.283Z,8.52
2023-09-12T01:22:41.417Z,8.05
2023-09-12T01:25:47.024Z,7.33
2023-09-12T01:28:18.175Z,7.93
2023-09-12T01:30:49.688Z,7.82
2023-09-12T01:33:17.575Z,8.23
2023-09-12T01:35:47.441Z,8.23
2023-09-12T01:38:15.801Z,7.95
2023-09-12T01:40:52.314Z,8.40
2023-09-12T01:43:23.477Z,7.63
2023-09-12T01:45:57.355Z,7.70
2023-09-12T01:48:34.305Z,7.40
2023-09-12T01:51:04.370Z,6.55
2023-09-12T01:53:34.181Z,8.13
2023-09-12T01:56:01.894Z,8.85
2023-09-12T01:58:30.187Z,7.90
2023-09-12T02:00:58.214Z,8.10
2023-09-12T02:03:26.145Z,8.50
2023-09-12T02:05:53.854Z,8.07
2023-09-12T02:08:21.483Z,8.93
2023-09-12T02:10:49.149Z,7.65
2023-09-12T02:13:16.702Z,7.20
2023-09-12T02:15:44.345Z,6.95
2023-09-12T02:18:12.235Z,7.82
2023-09-12T02:20:42.824Z,8.77
2023-09-12T02:23:10.561Z,8.00
2023-09-12T02:25:38.864Z,7.18
2023-09-12T02:28:06.751Z,8.18
2023-09-12T02:30:34.379Z,9.20
2023-09-12T02:33:02.092Z,8.65
2023-09-12T02:35:30.070Z,7.85
2023-09-12T02:37:57.689Z,8.20
2023-09-12T02:40:26.274Z,8.75
2023-09-12T02:42:53.925Z,7.47
2023-09-12T02:45:21.578Z,8.40
2023-09-12T02:47:49.245Z,7.90
2023-09-12T02:50:17.097Z,9.65
2023-09-12T02:52:44.703Z,9.23
2023-09-12T02:55:12.347Z,9.80
2023-09-12T02:57:40.064Z,8.20
2023-09-12T03:00:10.104Z,9.05
2023-09-12T03:02:37.877Z,8.57
2023-09-12T03:05:06.234Z,8.57
2023-09-12T03:07:33.803Z,8.40
2023-09-12T03:10:01.429Z,9.23
2023-09-12T03:12:29.184Z,7.63
2023-09-12T03:14:57.865Z,8.90
2023-09-12T03:17:25.643Z,8.25
2023-09-12T03:19:53.380Z,9.00
2023-09-12T03:22:21.057Z,7.70
2023-09-12T03:24:48.955Z,7.90
2023-09-12T03:27:16.735Z,8.65
2023-09-12T03:29:48.935Z,9.05
2023-09-12T03:32:16.572Z,8.60
2023-09-12T03:34:44.380Z,8.35
2023-09-12T03:37:12.060Z,7.72
2023-09-12T03:39:40.127Z,8.65
2023-09-12T03:42:07.809Z,9.02
2023-09-12T03:44:35.525Z,8.90
2023-09-12T03:47:03.355Z,9.30
2023-09-12T03:49:31.155Z,8.02
2023-09-12T03:51:58.761Z,8.18
2023-09-12T03:54:27.399Z,8.13
2023-09-12T03:56:55.414Z,9.00
2023-09-12T03:59:23.068Z,9.10
2023-09-12T04:01:50.875Z,8.13
2023-09-12T04:04:18.613Z,10.38
2023-09-12T04:06:46.413Z,8.52
2023-09-12T04:09:14.090Z,8.93
2023-09-12T04:11:47.140Z,9.45
2023-09-12T04:14:15.984Z,8.98
2023-09-12T04:16:43.740Z,8.90
2023-09-12T04:19:11.472Z,7.90
2023-09-12T04:21:41.079Z,8.70
2023-09-12T04:24:09.194Z,8.55
2023-09-12T04:26:37.084Z,9.05
2023-09-12T04:29:04.883Z,8.82
2023-09-12T04:31:32.490Z,8.43
2023-09-12T04:34:00.131Z,9.18
2023-09-12T04:36:27.782Z,10.43
2023-09-12T04:38:55.434Z,8.43
2023-09-12T04:41:22.976Z,9.60
2023-09-12T04:43:50.568Z,8.30
2023-09-12T04:46:18.213Z,9.10
2023-09-12T04:48:46.173Z,8.93
2023-09-12T04:51:14.266Z,8.93
2023-09-12T04:53:41.857Z,9.68
2023-09-12T04:56:11.121Z,9.52
2023-09-12T04:58:39.019Z,10.35
2023-09-12T05:01:06.715Z,10.90
2023-09-12T05:03:34.629Z,10.82
2023-09-12T05:06:02.628Z,10.55
2023-09-12T05:08:30.979Z,8.75
2023-09-12T05:10:58.589Z,9.07
2023-09-12T05:13:26.260Z,9.98
2023-09-12T05:15:53.967Z,9.95
2023-09-12T05:18:21.776Z,9.38
2023-09-12T05:20:49.893Z,8.70
2023-09-12T05:23:19.829Z,9.48
2023-09-12T05:25:47.440Z,9.02
2023-09-12T05:28:17.025Z,8.85
2023-09-12T05:30:49.863Z,9.75
2023-09-12T05:33:18.014Z,9.63
2023-09-12T05:35:45.723Z,8.90
2023-09-12T05:38:13.663Z,8.80
2023-09-12T05:40:41.455Z,10.48
2023-09-12T05:43:09.094Z,8.90
2023-09-12T05:45:36.835Z,9.27
2023-09-12T05:48:05.704Z,9.02
2023-09-12T05:50:35.066Z,8.63
2023-09-12T05:53:05.245Z,8.48
2023-09-12T05:55:32.935Z,8.27
2023-09-12T05:58:00.548Z,8.63
2023-09-12T06:00:28.305Z,8.40
2023-09-12T06:02:56.239Z,8.32
2023-09-12T06:05:23.903Z,8.80
2023-09-12T06:07:51.533Z,8.18
2023-09-12T06:10:19.517Z,9.00
2023-09-12T06:12:47.155Z,7.80
2023-09-12T06:15:14.873Z,8.57
2023-09-12T06:17:42.508Z,7.97
2023-09-12T06:20:10.919Z,7.90
2023-09-12T06:22:38.484Z,7.90
2023-09-12T06:25:07.539Z,8.02
2023-09-12T06:27:35.934Z,7.53
2023-09-12T06:30:04.045Z,8.35
2023-09-12T06:32:31.684Z,8.18
2023-09-12T06:34:59.298Z,7.70
2023-09-12T06:37:26.912Z,8.30
2023-09-12T06:39:54.526Z,7.82
2023-09-12T06:42:22.141Z,8.77
2023-09-12T06:44:49.770Z,8.60
2023-09-12T06:47:17.332Z,10.50
2023-09-12T06:49:48.145Z,8.85
2023-09-12T06:52:17.746Z,7.63
2023-09-12T06:54:45.385Z,7.13
2023-09-12T06:57:12.982Z,7.47
2023-09-12T06:59:40.570Z,7.25
2023-09-12T07:02:08.519Z,7.85
2023-09-12T07:04:36.111Z,7.85
2023-09-12T07:07:05.540Z,10.05
2023-09-12T07:09:33.272Z,12.43
2023-09-12T07:12:00.910Z,11.02
2023-09-12T07:14:28.528Z,10.30
2023-09-12T07:16:56.117Z,10.75
2023-09-12T07:19:23.850Z,9.82
2023-09-12T07:21:51.533Z,10.02
2023-09-12T07:24:19.151Z,11.80
2023-09-12T07:26:47.932Z,12.52
2023-09-12T07:29:15.549Z,9.93
2023-09-12T07:31:43.336Z,9.88
2023-09-12T07:34:12.976Z,9.25
2023-09-12T07:36:40.617Z,9.45
2023-09-12T07:39:08.361Z,11.05
2023-09-12T07:41:35.930Z,9.98
2023-09-12T07:44:05.771Z,11.25
2023-09-12T07:46:33.475Z,10.90
2023-09-12T07:49:01.099Z,8.88
2023-09-12T07:51:28.676Z,10.20
2023-09-12T07:53:56.276Z,11.38
2023-09-12T07:56:23.855Z,10.52
2023-09-12T07:58:51.525Z,7.93
2023-09-12T08:01:19.169Z,8.45
2023-09-12T08:03:46.942Z,7.40
2023-09-12T08:06:14.976Z,8.10
2023-09-12T08:08:45.303Z,9.85
2023-09-12T08:11:13.501Z,9.48
2023-09-12T08:13:41.579Z,8.35
2023-09-12T08:16:09.512Z,8.98
2023-09-12T08:18:37.129Z,8.48
2023-09-12T08:21:04.718Z,9.43
2023-09-12T08:23:32.311Z,8.95
2023-09-12T08:26:00.747Z,9.57
2023-09-12T08:28:28.435Z,8.80
2023-09-12T08:30:56.078Z,9.05
2023-09-12T08:33:26.276Z,8.27
2023-09-12T08:35:54.516Z,10.02
2023-09-12T08:38:22.089Z,11.07
2023-09-12T08:40:53.168Z,9.60
2023-09-12T08:43:22.083Z,9.75
2023-09-12T08:45:50.997Z,9.20
2023-09-12T08:48:21.910Z,9.40
2023-09-12T08:53:23.562Z,7.15
2023-09-12T08:55:53.844Z,7.63
2023-09-12T08:58:22.745Z,8.68
2023-09-12T09:00:51.254Z,7.75
2023-09-12T09:03:21.338Z,8.93
2023-09-12T09:05:50.816Z,8.32
2023-09-12T09:08:19.616Z,8.38
2023-09-12T09:11:03.271Z,8.30
2023-09-12T09:13:31.331Z,8.23
2023-09-12T09:16:25.148Z,9.15
2023-09-12T09:19:11.082Z,8.45
2023-09-12T09:21:42.081Z,8.68
2023-09-12T09:24:12.116Z,8.20
2023-09-12T09:26:51.912Z,8.20
2023-09-12T09:29:21.599Z,7.75
2023-09-12T09:31:52.023Z,8.23
2023-09-12T09:34:22.795Z,8.10
2023-09-12T09:36:58.263Z,6.90
2023-09-12T09:39:30.022Z,7.90
2023-09-12T09:41:58.599Z,7.18
2023-09-12T09:44:28.114Z,8.55
2023-09-12T09:47:01.573Z,8.10
2023-09-12T09:49:32.435Z,8.57
2023-09-12T09:52:00.059Z,8.98
2023-09-12T09:54:27.914Z,6.80
2023-09-12T09:56:58.949Z,7.55
2023-09-12T09:59:28.682Z,8.10
2023-09-12T10:02:00.115Z,7.38
2023-09-12T10:04:30.184Z,7.03
2023-09-12T10:06:59.648Z,7.35
2023-09-12T10:09:29.675Z,7.35
2023-09-12T10:11:58.971Z,7.65
2023-09-12T10:14:29.517Z,8.05
2023-09-12T10:17:06.234Z,7.50
2023-09-12T10:19:55.231Z,8.10
2023-09-12T10:22:32.347Z,7.00
2023-09-12T10:25:01.789Z,8.07
2023-09-12T10:27:31.078Z,8.43
2023-09-12T10:30:00.963Z,7.90
2023-09-12T10:32:31.318Z,8.82
2023-09-12T10:35:00.638Z,6.80
2023-09-12T10:37:33.995Z,7.28
2023-09-12T10:40:04.617Z,7.18
2023-09-12T10:42:34.470Z,7.45
2023-09-12T10:45:08.247Z,7.90
2023-09-12T10:47:38.011Z,7.22
2023-09-12T10:50:07.423Z,7.30
2023-09-12T10:52:40.661Z,7.85
2023-09-12T10:55:09.187Z,7.30
2023-09-12T10:58:08.569Z,6.95
2023-09-12T11:00:38.298Z,8.18
2023-09-12T11:03:27.443Z,8.43
2023-09-12T11:05:57.151Z,7.90
2023-09-12T11:08:25.366Z,8.57
2023-09-12T11:11:20.728Z,8.70
2023-09-12T11:14:03.945Z,8.63
2023-09-12T11:16:32.252Z,6.97
2023-09-12T11:19:24.414Z,8.30
2023-09-12T11:21:54.233Z,7.63
2023-09-12T11:24:22.582Z,8.35
2023-09-12T11:26:58.792Z,7.28
2023-09-12T11:29:37.089Z,7.57
2023-09-12T11:32:06.460Z,7.72
2023-09-12T11:34:48.441Z,7.28
2023-09-12T11:37:25.993Z,8.27
2023-09-12T11:39:55.451Z,7.93
2023-09-12T11:42:24.003Z,8.05
2023-09-12T11:44:52.909Z,8.00
2023-09-12T11:47:21.346Z,8.07
2023-09-12T11:49:50.630Z,7.95
2023-09-12T11:52:18.192Z,9.02
2023-09-12T11:54:46.490Z,8.13
2023-09-12T11:57:15.919Z,7.22
2023-09-12T11:59:47.992Z,8.10
2023-09-12T12:02:16.370Z,8.75
2023-09-12T12:04:44.364Z,8.20
2023-09-12T12:07:12.620Z,8.68
2023-09-12T12:09:40.376Z,8.18
2023-09-12T12:12:15.953Z,9.15
2023-09-12T12:14:44.674Z,8.93
2023-09-12T12:17:13.559Z,8.77
2023-09-12T12:19:46.462Z,8.40
2023-09-12T12:24:48.339Z,8.15
2023-09-12T12:27:17.164Z,7.80
2023-09-12T12:29:45.808Z,7.57
2023-09-12T12:32:17.284Z,8.40
2023-09-12T12:35:18.225Z,7.78
2023-09-12T12:37:38.401Z,8.75
2023-09-12T12:40:07.549Z,7.88
2023-09-12T12:42:53.916Z,7.30
2023-09-12T12:45:27.360Z,7.53
2023-09-12T12:48:02.411Z,7.85
2023-09-12T12:50:30.181Z,7.35
2023-09-12T12:52:58.158Z,7.38
2023-09-12T12:55:27.629Z,7.35
2023-09-12T12:57:55.394Z,7.13
2023-09-12T13:00:24.585Z,7.88
2023-09-12T13:02:52.360Z,8.38
2023-09-12T13:05:31.780Z,8.40
2023-09-12T13:07:59.357Z,7.43
2023-09-12T13:10:27.044Z,7.80
2023-09-12T13:12:54.778Z,7.07
2023-09-12T13:15:22.456Z,8.77
2023-09-12T13:17:50.215Z,7.70
2023-09-12T13:20:17.890Z,8.25
2023-09-12T13:22:45.738Z,7.10
2023-09-12T13:25:13.421Z,8.30
2023-09-12T13:27:41.229Z,7.25
2023-09-12T13:30:09.319Z,6.82
2023-09-12T13:32:37.034Z,6.60
2023-09-12T13:35:05.139Z,7.53
2023-09-12T13:37:32.745Z,7.57
2023-09-12T13:40:00.544Z,6.70
2023-09-12T13:42:32.055Z,6.57
2023-09-12T13:44:59.713Z,8.10
2023-09-12T13:47:27.370Z,6.60
2023-09-12T13:49:55.030Z,6.80
2023-09-12T13:52:22.765Z,6.88
2023-09-12T13:54:50.624Z,6.10
2023-09-12T13:57:18.456Z,6.78
2023-09-12T13:59:47.009Z,6.43
2023-09-12T14:02:15.106Z,6.43
2023-09-12T14:04:43.630Z,6.25
2023-09-12T14:07:11.932Z,6.20
2023-09-12T14:09:41.062Z,7.57
2023-09-12T14:12:21.500Z,6.82
2023-09-12T14:15:03.951Z,6.63
2023-09-12T14:17:36.070Z,7.70
2023-09-12T14:20:05.044Z,6.88
2023-09-12T14:22:33.082Z,7.35
2023-09-12T14:25:02.852Z,6.25
2023-09-12T14:27:30.902Z,7.20
2023-09-12T14:30:00.319Z,6.97
2023-09-12T14:32:27.916Z,7.30
2023-09-12T14:34:55.597Z,6.78
2023-09-12T14:37:28.173Z,6.95
2023-09-12T14:42:24.624Z,6.13
2023-09-12T14:44:52.180Z,7.00
2023-09-12T14:47:19.738Z,6.30
2023-09-12T14:49:51.278Z,6.43
2023-09-12T14:52:25.184Z,6.97
2023-09-12T14:54:55.419Z,6.85
2023-09-12T14:57:24.012Z,6.45
2023-09-12T14:59:52.613Z,6.78
2023-09-12T15:02:20.252Z,7.18
2023-09-12T15:04:48.024Z,6.93
2023-09-12T15:07:15.560Z,6.93
2023-09-12T15:09:43.169Z,8.20
2023-09-12T15:12:10.816Z,6.90
2023-09-12T15:14:38.529Z,6.45
2023-09-12T15:17:06.120Z,6.68
2023-09-12T15:19:33.660Z,7.70
2023-09-12T15:22:01.468Z,23.92
2023-09-12T15:24:29.472Z,9.18
2023-09-12T15:26:57.345Z,7.78
2023-09-12T15:29:25.798Z,7.90
2023-09-12T15:31:54.721Z,7.45
2023-09-12T15:34:22.338Z,7.18
2023-09-12T15:36:50.458Z,7.38
2023-09-12T15:39:18.155Z,7.82
2023-09-12T15:41:46.294Z,6.72
2023-09-12T15:44:16.433Z,7.32
2023-09-12T15:46:44.332Z,6.63
2023-09-12T15:49:12.126Z,7.47
2023-09-12T15:51:40.122Z,7.15
2023-09-12T15:54:07.776Z,6.97
2023-09-12T15:56:35.392Z,7.55
2023-09-12T15:59:04.000Z,6.70
2023-09-12T16:01:31.790Z,8.65
2023-09-12T16:03:59.744Z,7.07
2023-09-12T16:06:27.647Z,7.30
2023-09-12T16:08:55.219Z,7.30
2023-09-12T16:11:22.807Z,6.75
2023-09-12T16:13:52.875Z,6.80
2023-09-12T16:16:21.640Z,7.03
2023-09-12T16:18:49.709Z,6.90
2023-09-12T16:21:17.394Z,6.70
2023-09-12T16:23:45.257Z,7.18
2023-09-12T16:26:12.952Z,7.22
2023-09-12T16:28:40.564Z,6.20
2023-09-12T16:31:08.226Z,7.30
2023-09-12T16:33:36.142Z,7.40
2023-09-12T16:36:04.506Z,8.02
2023-09-12T16:38:34.342Z,8.23
2023-09-12T16:41:02.064Z,7.50
2023-09-12T16:43:29.691Z,7.38
2023-09-12T16:45:57.433Z,7.80
2023-09-12T16:48:25.245Z,7.85
2023-09-12T16:50:52.917Z,7.97
2023-09-12T16:53:21.478Z,8.02
2023-09-12T16:55:49.034Z,6.93
2023-09-12T16:58:16.891Z,7.18
2023-09-12T17:00:44.598Z,7.15
2023-09-12T17:03:12.438Z,7.00
2023-09-12T17:05:40.072Z,6.40
2023-09-12T17:08:07.668Z,6.85
2023-09-12T17:10:35.390Z,7.00
2023-09-12T17:13:03.096Z,6.30
2023-09-12T17:15:30.777Z,7.00
2023-09-12T17:17:58.408Z,8.77
2023-09-12T17:20:26.090Z,7.97
2023-09-12T17:22:53.748Z,6.53
2023-09-12T17:25:21.315Z,7.28
2023-09-12T17:27:49.791Z,8.27
2023-09-12T17:30:17.698Z,8.30
2023-09-12T17:32:45.383Z,7.10
2023-09-12T17:35:12.987Z,6.57
2023-09-12T17:37:40.878Z,8.32
2023-09-12T17:40:09.491Z,7.47
2023-09-12T17:42:37.191Z,7.63
2023-09-12T17:45:05.624Z,7.18
2023-09-12T17:47:33.335Z,7.82
2023-09-12T17:50:00.972Z,7.50
2023-09-12T17:52:28.560Z,8.63
2023-09-12T17:54:56.169Z,8.15
2023-09-12T17:57:23.813Z,7.70
2023-09-12T17:59:52.487Z,7.07
2023-09-12T18:02:20.046Z,7.30
2023-09-12T18:04:47.747Z,7.13
2023-09-12T18:07:15.506Z,7.82
2023-09-12T18:09:43.131Z,7.78
2023-09-12T18:12:10.761Z,6.55
2023-09-12T18:14:38.343Z,6.68
2023-09-12T18:17:05.997Z,6.43
2023-09-12T18:19:35.574Z,6.47
2023-09-12T18:22:04.896Z,6.68
2023-09-12T18:24:32.839Z,5.80
2023-09-12T18:27:00.437Z,6.40
2023-09-12T18:29:28.106Z,5.82
2023-09-12T18:31:56.389Z,5.47
2023-09-12T18:34:24.015Z,6.15
2023-09-12T18:36:53.212Z,6.63
2023-09-12T18:39:21.445Z,5.60
2023-09-12T18:41:49.031Z,5.75
2023-09-12T18:44:16.576Z,4.85
2023-09-12T18:46:44.589Z,4.43
2023-09-12T18:49:12.370Z,5.25
2023-09-12T18:51:41.131Z,4.43
2023-09-12T18:54:20.059Z,4.75
2023-09-12T18:56:49.404Z,4.47
2023-09-12T18:59:17.456Z,4.03
2023-09-12T19:01:45.083Z,4.13
2023-09-12T19:04:25.268Z,4.40
2023-09-12T19:06:53.840Z,4.97
2023-09-12T19:09:21.438Z,4.35
2023-09-12T19:11:49.960Z,4.47
2023-09-12T19:14:17.882Z,4.43
2023-09-12T19:16:46.158Z,4.40
2023-09-12T19:19:14.123Z,3.70
2023-09-12T19:21:41.835Z,4.20
2023-09-12T19:24:09.970Z,3.92
2023-09-12T19:26:37.790Z,4.25
2023-09-12T19:29:05.578Z,5.05
2023-09-12T19:31:33.224Z,4.15
2023-09-12T19:34:03.066Z,4.78
2023-09-12T19:36:31.389Z,4.40
2023-09-12T19:39:02.389Z,4.65
2023-09-12T19:41:30.489Z,4.95
2023-09-12T19:43:58.157Z,4.95
2023-09-12T19:46:25.891Z,4.88
2023-09-12T19:48:53.658Z,5.30
2023-09-12T19:51:21.344Z,5.35
2023-09-12T19:53:48.994Z,4.53
2023-09-12T19:56:16.643Z,4.13
2023-09-12T19:58:44.288Z,4.65
2023-09-12T20:01:11.975Z,4.70
2023-09-12T20:03:39.881Z,4.90
2023-09-12T20:06:07.800Z,4.53
2023-09-12T20:08:36.386Z,4.53
2023-09-12T20:11:09.420Z,5.40
2023-09-12T20:13:37.180Z,6.03
2023-09-12T20:16:05.103Z,5.07
2023-09-12T20:18:32.958Z,4.90
2023-09-12T20:21:00.589Z,4.93
2023-09-12T20:23:28.151Z,5.22
2023-09-12T20:25:56.294Z,4.47
2023-09-12T20:28:25.094Z,5.05
2023-09-12T20:30:52.745Z,4.93
2023-09-12T20:33:20.357Z,4.20
2023-09-12T20:35:47.996Z,4.70
2023-09-12T20:38:15.561Z,4.97
2023-09-12T20:40:45.511Z,4.53
2023-09-12T20:43:16.330Z,4.80
2023-09-12T20:45:45.448Z,4.28
2023-09-12T20:48:14.120Z,4.32
2023-09-12T20:50:43.530Z,4.32
2023-09-12T20:53:15.920Z,5.15
2023-09-12T20:55:43.985Z,4.40
2023-09-12T20:58:13.045Z,4.80
2023-09-12T21:00:41.627Z,5.20
2023-09-12T21:03:09.281Z,5.13
2023-09-12T21:05:37.193Z,4.93
2023-09-12T21:08:05.067Z,4.55
2023-09-12T21:10:32.658Z,4.65
2023-09-12T21:13:00.730Z,4.60
2023-09-12T21:15:28.628Z,4.90
2023-09-12T21:17:56.337Z,5.10
2023-09-12T21:20:24.074Z,5.93
2023-09-12T21:22:52.390Z,4.82
2023-09-12T21:25:20.290Z,4.78
2023-09-12T21:27:47.917Z,4.78
2023-09-12T21:30:15.632Z,4.85
2023-09-12T21:32:43.281Z,5.00
2023-09-12T21:35:16.985Z,6.15
2023-09-12T21:37:45.602Z,5.05
2023-09-12T21:40:15.183Z,5.03
2023-09-12T21:42:43.951Z,5.85
2023-09-12T21:45:16.263Z,5.03
2023-09-12T21:47:45.548Z,5.35
2023-09-12T21:50:13.981Z,4.40
2023-09-12T21:52:43.428Z,5.15
2023-09-12T21:55:11.699Z,5.32
2023-09-12T21:57:39.343Z,4.82
2023-09-12T22:00:33.967Z,4.90
2023-09-12T22:03:02.895Z,5.75
2023-09-12T22:05:30.594Z,5.18
2023-09-12T22:07:58.130Z,5.55
2023-09-12T22:10:25.734Z,5.65
2023-09-12T22:12:53.624Z,5.25
2023-09-12T22:15:21.443Z,4.65
2023-09-12T22:17:49.067Z,5.25
2023-09-12T22:20:17.257Z,5.32
2023-09-12T22:22:46.249Z,5.20
2023-09-12T22:25:14.875Z,5.30
2023-09-12T22:27:43.846Z,4.80
2023-09-12T22:30:11.953Z,5.60
2023-09-12T22:32:39.909Z,5.75
2023-09-12T22:35:08.171Z,5.07
2023-09-12T22:37:35.780Z,5.38
2023-09-12T22:40:04.680Z,4.85
2023-09-12T22:42:32.284Z,5.20
2023-09-12T22:44:59.857Z,5.25
2023-09-12T22:47:27.545Z,5.30
2023-09-12T22:49:58.491Z,5.70
2023-09-12T22:52:26.551Z,4.90
2023-09-12T22:54:54.122Z,5.57
2023-09-12T22:57:21.845Z,5.72
2023-09-12T22:59:49.433Z,5.78
2023-09-12T23:02:16.989Z,5.57
2023-09-12T23:04:45.585Z,4.97
2023-09-12T23:07:13.296Z,5.03
2023-09-12T23:09:40.927Z,6.10
2023-09-12T23:12:08.868Z,5.15
2023-09-12T23:14:36.621Z,4.85
2023-09-12T23:17:04.658Z,4.95
2023-09-12T23:19:32.352Z,4.60
2023-09-12T23:21:59.939Z,5.30
2023-09-12T23:24:27.550Z,4.97
2023-09-12T23:26:55.117Z,4.88
2023-09-12T23:29:22.705Z,4.72
2023-09-12T23:31:50.411Z,5.28
2023-09-12T23:34:18.137Z,5.45
2023-09-12T23:36:45.773Z,6.15
2023-09-12T23:39:13.362Z,4.95
2023-09-12T23:41:40.941Z,4.72
2023-09-12T23:44:08.515Z,5.00
2023-09-12T23:46:36.199Z,5.53
2023-09-12T23:49:04.102Z,4.65
2023-09-12T23:51:31.717Z,4.40
2023-09-12T23:53:59.324Z,4.63
2023-09-12T23:56:26.851Z,4.45
2023-09-12T23:58:54.418Z,5.25
